createdAt,value
2018-12-12T00:00:30.077Z,4.53
2018-12-12T00:03:11.358Z,4.28
2018-12-12T00:05:40.210Z,3.50
2018-12-12T00:08:21.402Z,4.28
2018-12-12T00:10:51.720Z,3.25
2018-12-12T00:13:33.009Z,3.95
2018-12-12T00:16:01.866Z,4.58
2018-12-12T00:18:43.060Z,3.52
2018-12-12T00:21:13.025Z,3.90
2018-12-12T00:23:54.290Z,4.05
2018-12-12T00:26:23.155Z,3.60
2018-12-12T00:29:04.336Z,4.47
2018-12-12T00:31:33.402Z,3.77
2018-12-12T00:34:15.474Z,4.25
2018-12-12T00:36:44.330Z,3.62
2018-12-12T00:39:25.519Z,3.33
2018-12-12T00:41:54.423Z,3.27
2018-12-12T00:44:35.693Z,2.65
2018-12-12T00:47:19.097Z,2.77
2018-12-12T00:50:00.273Z,2.83
2018-12-12T00:52:29.220Z,2.65
2018-12-12T00:55:10.465Z,1.85
2018-12-12T00:57:39.447Z,2.05
2018-12-12T01:00:27.847Z,2.45
2018-12-12T01:02:58.153Z,2.12
2018-12-12T01:05:39.378Z,1.90
2018-12-12T01:08:08.374Z,1.90
2018-12-12T01:10:54.082Z,1.60
2018-12-12T01:13:23.036Z,1.35
2018-12-12T01:16:04.237Z,2.10
2018-12-12T01:18:33.082Z,1.35
2018-12-12T01:21:14.309Z,1.00
2018-12-12T01:23:45.123Z,1.52
2018-12-12T01:26:26.549Z,1.62
2018-12-12T01:28:55.410Z,1.17
2018-12-12T01:31:36.598Z,1.32
2018-12-12T01:34:05.445Z,1.30
2018-12-12T01:36:46.680Z,1.32
2018-12-12T01:39:15.677Z,1.12
2018-12-12T01:41:56.872Z,0.80
2018-12-12T01:44:25.732Z,1.50
2018-12-12T01:47:06.991Z,1.12
2018-12-12T01:49:35.836Z,1.05
2018-12-12T01:52:17.029Z,1.10
2018-12-12T01:54:45.901Z,1.00
2018-12-12T01:57:27.082Z,1.10
2018-12-12T01:59:56.058Z,0.90
2018-12-12T02:02:37.259Z,1.10
2018-12-12T02:05:06.406Z,1.45
2018-12-12T02:07:47.922Z,1.67
2018-12-12T02:10:17.231Z,1.50
2018-12-12T02:13:16.067Z,2.10
2018-12-12T02:15:45.013Z,1.60
2018-12-12T02:18:26.189Z,1.70
2018-12-12T02:20:55.049Z,1.82
2018-12-12T02:23:36.264Z,2.02
2018-12-12T02:26:05.113Z,2.10
2018-12-12T02:28:46.313Z,2.00
2018-12-12T02:31:15.169Z,2.15
2018-12-12T02:33:56.393Z,2.12
2018-12-12T02:36:25.598Z,2.00
2018-12-12T02:39:08.439Z,1.72
2018-12-12T02:41:37.301Z,1.90
2018-12-12T02:44:18.592Z,2.37
2018-12-12T02:46:47.448Z,1.70
2018-12-12T02:49:28.635Z,1.40
2018-12-12T02:51:57.485Z,1.80
2018-12-12T02:54:38.724Z,2.02
2018-12-12T02:57:07.583Z,1.45
2018-12-12T02:59:48.765Z,1.80
2018-12-12T03:02:17.644Z,1.60
2018-12-12T03:06:02.314Z,1.40
2018-12-12T03:08:31.365Z,1.20
2018-12-12T03:11:14.611Z,1.17
2018-12-12T03:13:43.465Z,1.20
2018-12-12T03:16:24.669Z,1.20
2018-12-12T03:19:05.914Z,1.40
2018-12-12T03:21:34.804Z,1.00
2018-12-12T03:24:15.978Z,1.07
2018-12-12T03:26:44.856Z,1.37
2018-12-12T03:29:26.051Z,2.35
2018-12-12T03:31:54.938Z,1.50
2018-12-12T03:34:36.220Z,1.40
2018-12-12T03:37:05.103Z,1.90
2018-12-12T03:39:46.281Z,1.75
2018-12-12T03:42:15.149Z,1.52
2018-12-12T03:44:56.560Z,1.95
2018-12-12T03:47:25.421Z,1.57
2018-12-12T03:50:06.758Z,1.50
2018-12-12T03:52:35.618Z,1.17
2018-12-12T03:55:10.093Z,1.10
2018-12-12T03:57:44.366Z,1.45
2018-12-12T04:00:25.747Z,1.07
2018-12-12T04:03:00.194Z,1.12
2018-12-12T04:05:41.373Z,1.75
2018-12-12T04:08:10.251Z,1.37
2018-12-12T04:10:51.441Z,0.90
2018-12-12T04:13:20.304Z,0.85
2018-12-12T04:16:01.471Z,1.25
2018-12-12T04:18:32.262Z,1.20
2018-12-12T04:21:13.435Z,1.02
2018-12-12T04:23:44.221Z,0.80
2018-12-12T04:26:25.410Z,0.70
2018-12-12T04:28:54.291Z,0.68
2018-12-12T04:31:35.486Z,1.00
2018-12-12T04:34:04.506Z,1.02
2018-12-12T04:36:45.689Z,0.62
2018-12-12T04:39:14.546Z,0.50
2018-12-12T04:41:56.379Z,0.70
2018-12-12T04:44:25.538Z,0.50
2018-12-12T04:47:06.437Z,0.50
2018-12-12T04:49:35.385Z,0.62
2018-12-12T04:52:16.570Z,0.80
2018-12-12T04:54:45.441Z,0.72
2018-12-12T04:57:26.630Z,0.62
2018-12-12T04:59:55.483Z,0.50
2018-12-12T05:02:37.099Z,0.50
2018-12-12T05:05:06.384Z,0.40
2018-12-12T05:07:47.553Z,0.42
2018-12-12T05:10:16.518Z,0.53
2018-12-12T05:12:57.769Z,0.40
2018-12-12T05:15:26.749Z,0.70
2018-12-12T05:18:07.921Z,0.40
2018-12-12T05:20:36.795Z,0.60
2018-12-12T05:23:18.158Z,0.40
2018-12-12T05:25:47.068Z,0.60
2018-12-12T05:28:28.257Z,0.40
2018-12-12T05:30:57.275Z,0.40
2018-12-12T05:33:38.573Z,0.60
2018-12-12T05:36:07.460Z,0.60
2018-12-12T05:38:36.542Z,0.80
2018-12-12T05:41:17.741Z,0.60
2018-12-12T05:43:46.788Z,0.53
2018-12-12T05:46:27.985Z,0.80
2018-12-12T05:48:56.933Z,0.88
2018-12-12T05:51:38.105Z,0.50
2018-12-12T05:54:06.953Z,0.53
2018-12-12T05:56:52.292Z,1.07
2018-12-12T05:59:26.836Z,0.80
2018-12-12T06:02:08.019Z,0.60
2018-12-12T06:04:36.867Z,0.98
2018-12-12T06:07:18.111Z,0.70
2018-12-12T06:09:48.621Z,0.72
2018-12-12T06:12:29.807Z,0.62
2018-12-12T06:14:58.652Z,0.60
2018-12-12T06:17:39.862Z,0.60
2018-12-12T06:20:09.126Z,1.10
2018-12-12T06:22:50.309Z,1.15
2018-12-12T06:25:19.190Z,1.45
2018-12-12T06:28:00.398Z,1.98
2018-12-12T06:30:31.145Z,1.70
2018-12-12T06:33:12.458Z,1.70
2018-12-12T06:35:41.318Z,1.32
2018-12-12T06:38:22.523Z,1.63
2018-12-12T06:40:53.097Z,2.77
2018-12-12T06:43:34.371Z,1.90
2018-12-12T06:46:03.222Z,1.30
2018-12-12T06:48:44.408Z,1.98
2018-12-12T06:51:13.264Z,1.92
2018-12-12T06:53:54.488Z,1.70
2018-12-12T06:56:25.449Z,1.52
2018-12-12T06:59:14.998Z,1.10
2018-12-12T07:01:45.772Z,1.25
2018-12-12T07:04:27.056Z,1.60
2018-12-12T07:06:56.941Z,1.30
2018-12-12T07:09:38.153Z,1.60
2018-12-12T07:12:07.000Z,1.45
2018-12-12T07:14:48.288Z,1.25
2018-12-12T07:17:17.158Z,1.72
2018-12-12T07:19:58.348Z,1.62
2018-12-12T07:22:27.288Z,1.50
2018-12-12T07:25:08.540Z,1.20
2018-12-12T07:27:38.889Z,2.05
2018-12-12T07:30:20.061Z,1.77
2018-12-12T07:32:48.917Z,2.02
2018-12-12T07:35:30.142Z,1.90
2018-12-12T07:37:59.147Z,1.70
2018-12-12T07:40:40.445Z,1.10
2018-12-12T07:43:09.498Z,1.25
2018-12-12T07:45:50.679Z,1.27
2018-12-12T07:48:19.749Z,1.20
2018-12-12T07:51:00.949Z,1.10
2018-12-12T07:53:29.811Z,0.85
2018-12-12T07:56:11.001Z,0.70
2018-12-12T07:58:39.874Z,0.80
2018-12-12T08:01:21.214Z,1.22
2018-12-12T08:06:31.434Z,1.20
2018-12-12T08:09:00.310Z,1.52
2018-12-12T08:11:41.518Z,1.10
2018-12-12T08:14:10.389Z,1.10
2018-12-12T08:16:51.585Z,1.22
2018-12-12T08:19:20.687Z,1.20
2018-12-12T08:22:01.877Z,1.50
2018-12-12T08:24:31.529Z,1.75
2018-12-12T08:27:12.764Z,1.52
2018-12-12T08:29:41.727Z,1.22
2018-12-12T08:32:23.060Z,2.30
2018-12-12T08:34:52.025Z,1.10
2018-12-12T08:37:33.342Z,0.75
2018-12-12T08:40:05.081Z,1.57
2018-12-12T08:42:46.428Z,1.40
2018-12-12T08:45:15.403Z,1.37
2018-12-12T08:47:56.665Z,0.93
2018-12-12T08:50:26.525Z,1.10
2018-12-12T08:53:07.790Z,1.10
2018-12-12T08:55:36.709Z,0.90
2018-12-12T08:58:17.908Z,0.85
2018-12-12T09:00:46.764Z,0.87
2018-12-12T09:03:28.151Z,1.50
2018-12-12T09:05:57.013Z,1.40
2018-12-12T09:08:38.214Z,0.77
2018-12-12T09:11:08.310Z,0.87
2018-12-12T09:13:49.609Z,0.53
2018-12-12T09:16:18.481Z,0.93
2018-12-12T09:18:59.659Z,0.80
2018-12-12T09:21:28.808Z,1.00
2018-12-12T09:24:10.061Z,1.20
2018-12-12T09:26:39.702Z,1.00
2018-12-12T09:29:20.913Z,0.93
2018-12-12T09:31:49.898Z,0.83
2018-12-12T09:34:31.223Z,1.00
2018-12-12T09:37:00.080Z,0.90
2018-12-12T09:39:41.284Z,1.00
2018-12-12T09:42:10.329Z,0.70
2018-12-12T09:44:51.558Z,0.70
2018-12-12T09:47:21.841Z,0.70
2018-12-12T09:50:03.522Z,0.63
2018-12-12T09:52:32.373Z,1.13
2018-12-12T09:55:13.572Z,0.70
2018-12-12T09:57:42.431Z,0.63
2018-12-12T10:00:31.377Z,0.80
2018-12-12T10:03:00.226Z,0.67
2018-12-12T10:05:41.430Z,0.80
2018-12-12T10:08:10.370Z,0.80
2018-12-12T10:10:52.461Z,0.90
2018-12-12T10:13:21.326Z,1.07
2018-12-12T10:16:02.524Z,0.73
2018-12-12T10:18:31.474Z,1.10
2018-12-12T10:21:12.809Z,0.80
2018-12-12T10:23:43.557Z,0.53
2018-12-12T10:26:24.746Z,0.70
2018-12-12T10:28:54.532Z,0.50
2018-12-12T10:31:35.885Z,0.70
2018-12-12T10:34:04.790Z,1.13
2018-12-12T10:36:45.970Z,1.00
2018-12-12T10:39:14.831Z,1.13
2018-12-12T10:41:56.045Z,0.50
2018-12-12T10:44:24.896Z,0.60
2018-12-12T10:47:06.086Z,0.70
2018-12-12T10:49:35.841Z,0.90
2018-12-12T10:52:17.050Z,0.70
2018-12-12T10:54:47.099Z,0.70
2018-12-12T10:57:28.301Z,0.50
2018-12-12T10:59:57.144Z,0.60
2018-12-12T11:02:43.919Z,0.90
2018-12-12T11:05:13.134Z,0.80
2018-12-12T11:07:54.333Z,0.47
2018-12-12T11:10:23.316Z,0.77
2018-12-12T11:13:04.561Z,0.70
2018-12-12T11:15:35.313Z,0.80
2018-12-12T11:18:16.528Z,0.43
2018-12-12T11:20:45.486Z,0.60
2018-12-12T11:23:27.034Z,0.87
2018-12-12T11:25:55.875Z,1.00
2018-12-12T11:28:37.077Z,1.00
2018-12-12T11:31:06.357Z,0.93
2018-12-12T11:33:50.418Z,0.60
2018-12-12T11:36:20.474Z,0.63
2018-12-12T11:39:01.773Z,0.97
2018-12-12T11:41:30.726Z,1.00
2018-12-12T11:44:11.937Z,0.90
2018-12-12T11:46:40.801Z,1.23
2018-12-12T11:49:21.983Z,1.10
2018-12-12T11:51:53.066Z,1.00
2018-12-12T11:54:34.366Z,1.00
2018-12-12T11:57:03.463Z,0.63
2018-12-12T11:59:45.035Z,0.90
2018-12-12T12:02:13.897Z,0.80
2018-12-12T12:04:55.191Z,0.90
2018-12-12T12:07:24.048Z,1.00
2018-12-12T12:10:08.683Z,1.20
2018-12-12T12:12:37.538Z,0.60
2018-12-12T12:15:18.726Z,1.03
2018-12-12T12:17:47.587Z,0.50
2018-12-12T12:20:28.770Z,0.83
2018-12-12T12:22:57.636Z,0.80
2018-12-12T12:25:38.829Z,0.90
2018-12-12T12:28:07.688Z,0.83
2018-12-12T12:30:48.874Z,1.07
2018-12-12T12:33:19.130Z,0.50
2018-12-12T12:36:00.325Z,0.60
2018-12-12T12:38:29.174Z,0.50
2018-12-12T12:41:10.374Z,1.13
2018-12-12T12:43:39.273Z,1.00
2018-12-12T12:46:20.466Z,0.50
2018-12-12T12:48:51.234Z,0.50
2018-12-12T12:51:32.438Z,0.70
2018-12-12T12:54:01.389Z,0.97
2018-12-12T12:56:42.595Z,0.50
2018-12-12T12:59:13.181Z,0.60
2018-12-12T13:01:56.481Z,0.50
2018-12-12T13:04:27.234Z,0.40
2018-12-12T13:07:08.465Z,0.60
2018-12-12T13:09:37.302Z,0.60
2018-12-12T13:12:18.586Z,0.60
2018-12-12T13:14:59.858Z,0.43
2018-12-12T13:17:28.758Z,0.63
2018-12-12T13:20:09.924Z,0.50
2018-12-12T13:22:39.037Z,0.50
2018-12-12T13:25:20.201Z,1.37
2018-12-12T13:27:50.971Z,0.67
2018-12-12T13:30:32.290Z,0.77
2018-12-12T13:33:01.797Z,0.70
2018-12-12T13:35:42.987Z,1.03
2018-12-12T13:38:11.971Z,0.60
2018-12-12T13:40:53.377Z,0.40
2018-12-12T13:43:22.249Z,0.70
2018-12-12T13:46:03.433Z,0.50
2018-12-12T13:48:33.231Z,0.50
2018-12-12T13:51:14.489Z,0.70
2018-12-12T13:53:43.374Z,0.50
2018-12-12T13:56:24.616Z,0.57
2018-12-12T13:58:54.184Z,0.93
2018-12-12T14:01:36.393Z,0.60
2018-12-12T14:04:05.249Z,0.50
2018-12-12T14:06:46.402Z,0.53
2018-12-12T14:09:15.294Z,0.43
2018-12-12T14:11:56.450Z,0.77
2018-12-12T14:14:25.319Z,0.80
2018-12-12T14:17:06.489Z,0.80
2018-12-12T14:19:35.373Z,1.00
2018-12-12T14:22:16.603Z,1.00
2018-12-12T14:24:45.457Z,0.90
2018-12-12T14:27:26.653Z,1.53
2018-12-12T14:29:56.133Z,1.43
2018-12-12T14:32:37.314Z,1.00
2018-12-12T14:35:06.342Z,1.10
2018-12-12T14:37:47.541Z,0.93
2018-12-12T14:40:18.314Z,0.67
2018-12-12T14:42:59.529Z,0.70
2018-12-12T14:45:28.390Z,0.90
2018-12-12T14:48:09.542Z,0.80
2018-12-12T14:50:38.806Z,1.60
2018-12-12T14:53:20.086Z,0.67
2018-12-12T14:55:50.852Z,0.60
2018-12-12T14:58:32.051Z,1.00
2018-12-12T15:01:01.692Z,1.10
2018-12-12T15:03:42.901Z,0.50
2018-12-12T15:06:11.771Z,0.70
2018-12-12T15:08:52.961Z,1.10
2018-12-12T15:11:21.916Z,0.60
2018-12-12T15:14:03.156Z,0.80
2018-12-12T15:16:32.242Z,0.80
2018-12-12T15:19:13.441Z,0.70
2018-12-12T15:21:42.305Z,0.80
2018-12-12T15:24:23.569Z,1.00
2018-12-12T15:26:52.425Z,0.53
2018-12-12T15:29:33.650Z,0.72
2018-12-12T15:32:02.562Z,0.83
2018-12-12T15:34:43.814Z,1.40
2018-12-12T15:37:12.699Z,1.73
2018-12-12T15:39:53.873Z,1.50
2018-12-12T15:42:23.657Z,1.52
2018-12-12T15:45:05.925Z,1.20
2018-12-12T15:47:34.840Z,2.30
2018-12-12T15:50:16.081Z,1.65
2018-12-12T15:52:45.034Z,1.98
2018-12-12T15:55:26.220Z,1.75
2018-12-12T15:57:55.081Z,1.77
2018-12-12T16:00:36.348Z,1.75
2018-12-12T16:03:05.666Z,1.98
2018-12-12T16:05:46.893Z,2.27
2018-12-12T16:08:15.762Z,3.15
2018-12-12T16:10:56.929Z,4.00
2018-12-12T16:13:25.781Z,3.50
2018-12-12T16:16:06.970Z,4.08
2018-12-12T16:18:35.935Z,3.85
2018-12-12T16:21:17.117Z,4.60
2018-12-12T16:23:45.991Z,5.35
2018-12-12T16:26:27.182Z,6.22
2018-12-12T16:28:56.049Z,6.90
2018-12-12T16:31:37.341Z,8.55
2018-12-12T16:34:06.351Z,8.85
2018-12-12T16:36:47.598Z,8.35
2018-12-12T16:39:16.449Z,8.48
2018-12-12T16:41:57.623Z,8.03
2018-12-12T16:44:26.689Z,9.03
2018-12-12T16:47:07.902Z,9.10
2018-12-12T16:49:36.989Z,7.33
2018-12-12T16:52:18.190Z,7.12
2018-12-12T16:54:47.150Z,6.45
2018-12-12T16:57:28.746Z,6.53
2018-12-12T16:59:57.874Z,5.53
2018-12-12T17:02:45.237Z,6.03
2018-12-12T17:05:14.377Z,5.55
2018-12-12T17:07:55.606Z,4.92
2018-12-12T17:10:24.600Z,5.62
2018-12-12T17:13:05.897Z,4.80
2018-12-12T17:15:37.201Z,4.50
2018-12-12T17:18:18.386Z,5.05
2018-12-12T17:20:47.642Z,7.05
2018-12-12T17:23:28.931Z,10.38
2018-12-12T17:25:57.830Z,7.67
2018-12-12T17:28:39.049Z,7.78
2018-12-12T17:31:07.924Z,7.20
2018-12-12T17:33:49.111Z,8.30
2018-12-12T17:36:18.141Z,9.20
2018-12-12T17:38:47.005Z,8.38
2018-12-12T17:41:28.193Z,7.65
2018-12-12T17:43:58.157Z,8.48
2018-12-12T17:46:39.357Z,8.33
2018-12-12T17:49:08.205Z,11.20
2018-12-12T17:51:49.409Z,9.45
2018-12-12T17:54:18.353Z,8.90
2018-12-12T17:56:59.553Z,8.93
2018-12-12T17:59:29.272Z,9.05
2018-12-12T18:02:10.496Z,8.90
2018-12-12T18:04:39.338Z,9.33
2018-12-12T18:07:20.561Z,8.08
2018-12-12T18:09:49.910Z,8.13
2018-12-12T18:12:31.460Z,7.65
2018-12-12T18:15:00.729Z,9.15
2018-12-12T18:17:43.621Z,8.28
2018-12-12T18:20:13.762Z,11.18
2018-12-12T18:22:56.266Z,11.40
2018-12-12T18:25:26.861Z,10.65
2018-12-12T18:28:09.315Z,11.28
2018-12-12T18:30:38.782Z,11.25
2018-12-12T18:33:20.359Z,16.90
2018-12-12T18:35:49.850Z,15.20
2018-12-12T18:38:31.277Z,16.27
2018-12-12T18:41:00.808Z,15.78
2018-12-12T18:43:42.181Z,14.47
2018-12-12T18:46:11.531Z,14.60
2018-12-12T18:48:53.159Z,13.93
2018-12-12T18:51:22.088Z,13.65
2018-12-12T18:54:03.362Z,12.18
2018-12-12T18:56:32.281Z,12.82
2018-12-12T18:59:17.828Z,13.35
2018-12-12T19:01:49.578Z,12.37
2018-12-12T19:04:31.865Z,12.07
2018-12-12T19:07:00.727Z,10.15
2018-12-12T19:09:41.969Z,12.15
2018-12-12T19:12:10.959Z,9.28
2018-12-12T19:14:59.202Z,10.85
2018-12-12T19:17:28.581Z,10.28
2018-12-12T19:20:10.686Z,7.95
2018-12-12T19:22:39.717Z,9.40
2018-12-12T19:25:21.742Z,7.95
2018-12-12T19:27:51.080Z,9.25
2018-12-12T19:30:32.799Z,10.25
2018-12-12T19:33:03.254Z,11.65
2018-12-12T19:35:44.609Z,12.33
2018-12-12T19:38:13.535Z,11.93
2018-12-12T19:40:55.324Z,11.93
2018-12-12T19:43:24.301Z,13.85
2018-12-12T19:46:07.055Z,14.63
2018-12-12T19:48:35.986Z,13.90
2018-12-12T19:51:17.892Z,13.40
2018-12-12T19:53:46.842Z,13.98
2018-12-12T19:56:28.329Z,12.63
2018-12-12T19:58:57.342Z,13.38
2018-12-12T20:01:39.282Z,14.65
2018-12-12T20:04:09.461Z,15.63
2018-12-12T20:06:50.714Z,15.58
2018-12-12T20:09:20.314Z,16.97
2018-12-12T20:12:02.023Z,15.05
2018-12-12T20:14:30.973Z,15.13
2018-12-12T20:17:12.185Z,15.45
2018-12-12T20:19:41.069Z,12.33
2018-12-12T20:22:22.570Z,15.35
2018-12-12T20:24:51.460Z,13.05
2018-12-12T20:27:32.662Z,12.25
2018-12-12T20:30:01.567Z,13.08
2018-12-12T20:32:43.262Z,12.20
2018-12-12T20:35:12.594Z,14.23
2018-12-12T20:37:54.231Z,14.15
2018-12-12T20:40:23.501Z,14.63
2018-12-12T20:43:05.421Z,13.50
2018-12-12T20:45:34.498Z,12.80
2018-12-12T20:48:15.709Z,14.38
2018-12-12T20:50:45.310Z,15.68
2018-12-12T20:53:26.573Z,13.83
2018-12-12T20:55:56.329Z,15.00
2018-12-12T20:58:37.814Z,14.70
2018-12-12T21:01:06.680Z,13.55
2018-12-12T21:03:47.946Z,14.60
2018-12-12T21:06:18.219Z,13.48
2018-12-12T21:08:59.417Z,15.35
2018-12-12T21:11:29.190Z,15.13
2018-12-12T21:14:10.541Z,16.42
2018-12-12T21:16:39.450Z,15.70
2018-12-12T21:19:20.668Z,19.57
2018-12-12T21:21:49.833Z,18.95
2018-12-12T21:24:31.190Z,19.00
2018-12-12T21:27:00.042Z,19.52
2018-12-12T21:29:41.245Z,20.55
2018-12-12T21:32:10.098Z,18.67
2018-12-12T21:34:51.324Z,19.42
2018-12-12T21:37:20.190Z,17.70
2018-12-12T21:40:01.401Z,15.88
2018-12-12T21:42:30.918Z,15.83
2018-12-12T21:45:12.189Z,15.30
2018-12-12T21:47:41.167Z,19.00
2018-12-12T21:50:22.411Z,20.77
2018-12-12T21:52:51.266Z,19.52
2018-12-12T21:55:32.482Z,18.25
2018-12-12T21:58:13.873Z,16.45
2018-12-12T22:00:42.842Z,15.55
2018-12-12T22:03:24.025Z,16.32
2018-12-12T22:05:52.933Z,13.62
2018-12-12T22:08:34.106Z,13.65
2018-12-12T22:11:03.048Z,14.83
2018-12-12T22:13:44.233Z,12.25
2018-12-12T22:16:13.213Z,14.03
2018-12-12T22:18:54.388Z,13.13
2018-12-12T22:21:23.373Z,13.62
2018-12-12T22:24:04.650Z,15.50
2018-12-12T22:26:33.737Z,12.30
2018-12-12T22:29:15.775Z,12.80
2018-12-12T22:31:45.957Z,10.03
2018-12-12T22:34:27.264Z,9.95
2018-12-12T22:36:56.171Z,9.10
2018-12-12T22:39:37.350Z,10.15
2018-12-12T22:42:06.336Z,9.78
2018-12-12T22:44:47.586Z,8.75
2018-12-12T22:47:16.664Z,10.30
2018-12-12T22:49:57.955Z,10.80
2018-12-12T22:52:26.925Z,9.90
2018-12-12T22:55:08.151Z,10.05
2018-12-12T22:57:37.136Z,10.30
2018-12-12T23:00:32.418Z,9.95
2018-12-12T23:03:01.324Z,9.98
2018-12-12T23:05:42.570Z,9.20
2018-12-12T23:08:12.129Z,8.85
2018-12-12T23:10:53.814Z,9.85
2018-12-12T23:13:22.689Z,9.40
2018-12-12T23:16:04.054Z,10.32
2018-12-12T23:18:32.922Z,10.30
2018-12-12T23:21:14.097Z,10.45
2018-12-12T23:23:42.955Z,11.00
2018-12-12T23:26:24.177Z,10.18
2018-12-12T23:28:53.059Z,9.65
2018-12-12T23:31:34.246Z,9.78
2018-12-12T23:34:03.230Z,10.45
2018-12-12T23:36:44.425Z,11.00
2018-12-12T23:39:13.325Z,11.05
2018-12-12T23:41:54.506Z,8.90
2018-12-12T23:44:23.413Z,10.90
2018-12-12T23:47:04.697Z,8.45
2018-12-12T23:49:33.558Z,9.63
2018-12-12T23:52:14.738Z,8.30
2018-12-12T23:54:45.522Z,7.85
2018-12-12T23:57:26.744Z,9.00
2018-12-12T23:59:55.598Z,8.80
